Time;durP1;ratioP1;P1;durP2;ratioP2;P2;SDS_P1;SDS_P2;PMS_P1;PMS_P2;Temp;Humidity;BMP_temperature;BMP_pressure;BME280_temperature;BME280_humidity;BME280_pressure;Samples;Min_cycle;Max_cycle;Signal;HPM_P1;HPM_P2
2021/11/05 00:00:11;;;;;;;11.68;4.50;;;11.70;87.10;;;;;;5051069;28;20021;-72
2021/11/05 00:02:36;;;;;;;10.10;4.75;;;11.70;77.00;;;;;;5033507;28;20026;-72
2021/11/05 00:05:03;;;;;;;11.35;4.68;;;11.60;75.80;;;;;;5051435;28;20064;-72
2021/11/05 00:07:28;;;;;;;11.63;4.55;;;11.60;75.90;;;;;;5051378;28;20432;-72
2021/11/05 00:09:54;;;;;;;16.10;5.55;;;11.60;75.60;;;;;;5050817;28;20032;-72
2021/11/05 00:12:20;;;;;;;17.63;7.40;;;11.40;76.40;;;;;;5051015;28;20029;-72
2021/11/05 00:14:45;;;;;;;12.65;6.35;;;11.30;77.10;;;;;;5054598;28;20025;-72
2021/11/05 00:17:11;;;;;;;18.13;6.20;;;11.40;77.30;;;;;;5055603;28;20113;-72
2021/11/05 00:19:38;;;;;;;15.20;5.50;;;11.40;77.50;;;;;;5054656;28;20025;-72
2021/11/05 00:22:04;;;;;;;17.00;5.55;;;11.40;77.30;;;;;;5053987;28;20025;-72
2021/11/05 00:24:30;;;;;;;13.02;5.10;;;11.40;77.20;;;;;;5054702;28;20034;-72
2021/11/05 00:26:56;;;;;;;8.82;4.80;;;11.40;77.40;;;;;;5054708;28;20029;-73
2021/11/05 00:29:22;;;;;;;13.55;4.28;;;11.50;77.30;;;;;;5054278;28;20051;-72
2021/11/05 00:31:48;;;;;;;7.35;4.22;;;11.50;77.30;;;;;;5054232;28;20052;-73
2021/11/05 00:34:17;;;;;;;11.85;4.75;;;11.50;77.30;;;;;;5054545;28;20029;-72
2021/11/05 00:36:44;;;;;;;10.80;4.00;;;11.50;77.60;;;;;;5054284;28;20029;-72
2021/11/05 00:39:10;;;;;;;11.43;4.53;;;11.50;78.60;;;;;;5054116;28;20032;-72
2021/11/05 00:41:36;;;;;;;14.82;4.53;;;11.50;79.00;;;;;;5054038;28;20021;-72
2021/11/05 00:44:01;;;;;;;10.13;3.90;;;11.50;82.70;;;;;;5053855;28;20061;-72
2021/11/05 00:46:27;;;;;;;11.80;3.83;;;11.50;83.00;;;;;;5054706;28;20032;-72
2021/11/05 00:48:53;;;;;;;15.32;4.75;;;11.60;82.40;;;;;;5054283;28;20040;-72
2021/11/05 00:51:19;;;;;;;11.63;4.07;;;11.60;85.20;;;;;;5053826;28;20382;-72
2021/11/05 00:53:44;;;;;;;10.07;3.88;;;11.60;85.40;;;;;;5053852;28;20477;-72
2021/11/05 00:56:10;;;;;;;8.98;3.80;;;11.60;85.70;;;;;;5054215;28;20033;-72
2021/11/05 00:58:36;;;;;;;9.93;3.90;;;11.70;83.00;;;;;;5036257;28;20025;-72
2021/11/05 01:01:02;;;;;;;11.73;3.78;;;11.70;83.70;;;;;;5054453;28;20432;-72
2021/11/05 01:03:28;;;;;;;12.27;4.43;;;11.70;83.30;;;;;;5053752;28;20112;-72
2021/11/05 01:05:54;;;;;;;13.93;3.63;;;11.70;83.40;;;;;;5053421;28;20124;-72
2021/11/05 01:08:19;;;;;;;8.88;3.78;;;11.70;81.90;;;;;;5054125;28;20458;-72
2021/11/05 01:10:45;;;;;;;8.77;3.83;;;11.70;79.90;;;;;;5053610;28;20020;-72
2021/11/05 01:13:11;;;;;;;9.60;4.57;;;11.70;79.20;;;;;;5054276;28;20029;-72
2021/11/05 01:15:37;;;;;;;9.90;3.60;;;11.70;78.70;;;;;;5053524;28;20016;-73
2021/11/05 01:18:03;;;;;;;8.27;3.83;;;11.70;78.00;;;;;;5053395;28;20504;-73
2021/11/05 01:20:30;;;;;;;12.15;3.70;;;11.60;77.40;;;;;;5053417;28;20033;-72
2021/11/05 01:22:56;;;;;;;10.43;4.28;;;11.60;77.20;;;;;;5053867;28;20359;-72
2021/11/05 01:25:22;;;;;;;8.88;3.30;;;11.50;77.30;;;;;;5052251;28;20392;-72
2021/11/05 01:27:48;;;;;;;5.57;3.20;;;11.50;77.10;;;;;;5053053;28;20029;-72
2021/11/05 01:30:16;;;;;;;6.72;3.00;;;11.50;77.30;;;;;;5053467;28;20044;-72
2021/11/05 01:32:43;;;;;;;10.68;3.83;;;11.50;76.80;;;;;;5053204;28;20485;-72
2021/11/05 01:35:10;;;;;;;6.60;3.13;;;11.40;77.10;;;;;;5052744;28;20048;-72
2021/11/05 01:37:36;;;;;;;11.88;4.05;;;11.40;77.10;;;;;;5054697;28;20393;-72
2021/11/05 01:40:03;;;;;;;7.45;3.42;;;11.40;77.30;;;;;;5054719;28;20059;-72
2021/11/05 01:42:29;;;;;;;6.53;3.50;;;11.40;77.10;;;;;;5055013;28;20024;-73
2021/11/05 01:44:54;;;;;;;11.70;3.15;;;11.30;77.00;;;;;;5054753;28;20151;-72
2021/11/05 01:47:20;;;;;;;12.57;3.00;;;11.30;77.20;;;;;;5054646;28;20033;-72
2021/11/05 01:49:47;;;;;;;10.30;3.38;;;11.30;77.30;;;;;;5054795;28;20539;-72
2021/11/05 01:52:15;;;;;;;9.30;3.35;;;11.30;77.20;;;;;;5054833;28;20029;-72
2021/11/05 01:54:42;;;;;;;8.75;3.13;;;11.30;77.10;;;;;;5054712;28;20033;-72
2021/11/05 01:57:08;;;;;;;6.95;3.00;;;11.20;77.10;;;;;;5054935;28;20021;-72
2021/11/05 01:59:36;;;;;;;10.90;3.83;;;11.20;77.00;;;;;;5051449;28;20477;-72
2021/11/05 02:02:04;;;;;;;14.05;3.75;;;11.20;77.10;;;;;;5051565;28;20393;-72
2021/11/05 02:04:30;;;;;;;7.07;3.22;;;11.10;77.10;;;;;;5052415;28;20068;-72
2021/11/05 02:06:56;;;;;;;14.93;3.53;;;11.10;77.50;;;;;;5054054;28;20453;-72
2021/11/05 02:09:25;;;;;;;10.48;3.63;;;11.10;77.80;;;;;;5054214;28;20043;-72
2021/11/05 02:11:53;;;;;;;8.20;3.28;;;11.10;77.90;;;;;;5054124;28;20469;-73
2021/11/05 02:14:22;;;;;;;9.98;3.55;;;11.10;78.20;;;;;;5036131;28;20044;-72
2021/11/05 02:16:52;;;;;;;11.00;3.10;;;11.10;78.10;;;;;;5054116;28;20075;-72
2021/11/05 02:19:23;;;;;;;8.07;3.30;;;11.10;78.20;;;;;;5053811;28;20529;-72
2021/11/05 02:21:52;;;;;;;9.45;3.33;;;11.10;78.20;;;;;;5054094;28;20108;-72
2021/11/05 02:24:19;;;;;;;9.73;3.97;;;11.10;78.50;;;;;;5053865;28;20036;-72
2021/11/05 02:26:45;;;;;;;10.15;3.88;;;11.00;78.90;;;;;;5053574;28;20051;-72
2021/11/05 02:29:12;;;;;;;8.52;3.30;;;;;;;;;;5053722;28;20037;-72
2021/11/05 02:31:38;;;;;;;13.20;3.63;;;10.90;77.30;;;;;;5054126;28;20028;-72
2021/11/05 02:34:04;;;;;;;6.22;3.08;;;10.90;77.90;;;;;;5053801;28;20082;-72
2021/11/05 02:36:30;;;;;;;12.90;3.67;;;10.90;77.90;;;;;;5053325;28;20025;-72
2021/11/05 02:38:57;;;;;;;11.40;3.83;;;10.90;77.90;;;;;;5035664;28;20028;-72
2021/11/05 02:41:23;;;;;;;8.32;3.20;;;10.90;77.80;;;;;;5053661;28;20032;-72
2021/11/05 02:43:50;;;;;;;7.60;3.00;;;10.80;77.60;;;;;;5053377;28;20043;-72
2021/11/05 02:46:16;;;;;;;9.23;3.00;;;10.80;77.90;;;;;;5053569;28;20025;-72
2021/11/05 02:48:42;;;;;;;8.13;3.42;;;10.70;77.60;;;;;;5053265;28;20043;-72
2021/11/05 02:51:09;;;;;;;11.25;3.30;;;10.70;78.00;;;;;;5053219;28;20100;-72
2021/11/05 02:53:36;;;;;;;8.18;3.33;;;10.70;78.10;;;;;;5053313;28;20021;-72
2021/11/05 02:56:03;;;;;;;9.13;3.55;;;10.70;78.10;;;;;;5035264;28;20028;-72
2021/11/05 02:58:29;;;;;;;8.70;3.80;;;10.70;78.30;;;;;;5053151;28;20071;-72
2021/11/05 03:00:56;;;;;;;13.05;3.22;;;10.70;78.40;;;;;;5053699;28;20021;-72
2021/11/05 03:03:21;;;;;;;12.68;3.25;;;10.70;78.40;;;;;;5035751;28;20482;-72
2021/11/05 03:05:47;;;;;;;9.63;2.95;;;10.70;78.60;;;;;;5053231;28;20068;-72
2021/11/05 03:08:13;;;;;;;7.50;3.20;;;10.70;78.60;;;;;;5052890;28;20025;-72
2021/11/05 03:10:39;;;;;;;7.07;2.90;;;10.70;78.50;;;;;;5035120;28;20477;-73
2021/11/05 03:13:04;;;;;;;8.50;2.75;;;10.60;78.80;;;;;;5053161;28;20032;-72
2021/11/05 03:15:30;;;;;;;10.60;3.00;;;10.60;79.30;;;;;;5052772;28;20393;-72
2021/11/05 03:17:58;;;;;;;7.22;2.92;;;10.60;79.40;;;;;;5052985;28;20021;-72
2021/11/05 03:20:24;;;;;;;8.40;2.53;;;10.60;79.20;;;;;;5053085;28;20040;-72
2021/11/05 03:22:50;;;;;;;9.88;3.25;;;10.60;79.30;;;;;;5053039;28;20025;-72
2021/11/05 03:25:16;;;;;;;7.13;2.97;;;10.60;79.20;;;;;;5053022;28;20017;-72
2021/11/05 03:27:42;;;;;;;6.38;3.17;;;10.60;79.00;;;;;;5052787;28;20067;-72
2021/11/05 03:30:11;;;;;;;10.40;3.10;;;10.60;79.10;;;;;;5052707;28;20033;-73
2021/11/05 03:32:38;;;;;;;8.48;3.38;;;10.60;79.40;;;;;;5052934;28;20397;-72
2021/11/05 03:35:05;;;;;;;9.98;3.42;;;10.60;79.60;;;;;;5052786;28;20428;-72
2021/11/05 03:37:31;;;;;;;9.57;3.15;;;10.60;79.70;;;;;;5052739;28;20104;-72
2021/11/05 03:39:57;;;;;;;8.38;3.08;;;10.60;79.50;;;;;;5052580;28;20021;-72
2021/11/05 03:42:23;;;;;;;9.15;2.90;;;10.60;79.40;;;;;;5052908;28;20029;-72
2021/11/05 03:44:49;;;;;;;7.93;2.90;;;10.70;79.60;;;;;;5052652;28;20037;-72
2021/11/05 03:47:15;;;;;;;9.95;3.00;;;10.60;79.50;;;;;;5053505;28;20033;-72
2021/11/05 03:49:40;;;;;;;7.82;3.03;;;10.60;79.50;;;;;;5056885;28;20037;-72
2021/11/05 03:52:06;;;;;;;8.27;2.83;;;10.60;79.90;;;;;;5057133;28;20478;-72
2021/11/05 03:54:32;;;;;;;9.68;3.03;;;10.60;80.10;;;;;;5057326;28;20093;-72
2021/11/05 03:56:58;;;;;;;9.85;2.40;;;10.60;79.80;;;;;;5056814;28;20074;-73
2021/11/05 03:59:23;;;;;;;7.85;2.45;;;10.60;79.50;;;;;;5056324;28;20029;-72
2021/11/05 04:01:49;;;;;;;7.22;2.78;;;10.60;79.60;;;;;;5056808;28;20106;-72
2021/11/05 04:04:16;;;;;;;7.70;2.65;;;10.60;79.50;;;;;;5056854;28;20051;-72
2021/11/05 04:06:42;;;;;;;9.70;3.72;;;10.60;79.60;;;;;;5057012;28;20056;-74
2021/11/05 04:09:08;;;;;;;11.52;4.05;;;10.60;79.70;;;;;;5056551;28;20114;-72
2021/11/05 04:11:34;;;;;;;14.75;3.08;;;10.60;79.70;;;;;;5056603;28;20092;-73
2021/11/05 04:13:59;;;;;;;15.95;3.20;;;10.60;79.60;;;;;;5056793;28;20443;-72
2021/11/05 04:16:25;;;;;;;8.13;3.10;;;10.60;79.50;;;;;;5056787;28;20017;-72
2021/11/05 04:18:51;;;;;;;11.38;3.20;;;10.60;79.50;;;;;;5056366;28;20025;-72
2021/11/05 04:21:17;;;;;;;12.00;3.53;;;10.60;79.40;;;;;;5056016;28;20025;-72
2021/11/05 04:23:43;;;;;;;9.02;2.97;;;10.60;79.20;;;;;;5056429;28;20024;-72
2021/11/05 04:26:09;;;;;;;10.65;3.60;;;10.60;78.80;;;;;;5056382;28;20059;-72
2021/11/05 04:28:36;;;;;;;8.77;3.00;;;10.60;78.70;;;;;;5056390;28;20029;-72
2021/11/05 04:31:02;;;;;;;7.05;2.92;;;10.60;79.40;;;;;;5056570;28;20402;-72
2021/11/05 04:33:32;;;;;;;12.20;3.20;;;10.60;80.60;;;;;;5056290;28;20029;-72
2021/11/05 04:36:00;;;;;;;8.40;3.13;;;10.50;80.50;;;;;;5056184;28;20539;-72
2021/11/05 04:38:26;;;;;;;16.13;4.22;;;10.50;80.10;;;;;;5055921;28;20090;-72
2021/11/05 04:40:52;;;;;;;4.80;2.60;;;10.50;80.90;;;;;;5055902;28;20024;-72
2021/11/05 04:43:18;;;;;;;8.97;3.53;;;10.50;81.40;;;;;;5056095;28;20021;-72
2021/11/05 04:45:44;;;;;;;8.95;4.10;;;10.40;80.90;;;;;;5056035;28;20052;-72
2021/11/05 04:48:10;;;;;;;10.05;4.95;;;10.30;79.70;;;;;;5055772;28;20029;-72
2021/11/05 04:50:37;;;;;;;13.20;5.38;;;10.30;80.00;;;;;;5056196;28;20021;-72
2021/11/05 04:53:03;;;;;;;14.13;6.07;;;10.30;80.10;;;;;;5055517;28;20029;-72
2021/11/05 04:55:29;;;;;;;11.23;6.07;;;10.30;80.10;;;;;;5055849;28;20035;-72
2021/11/05 04:57:55;;;;;;;11.57;6.47;;;10.30;80.20;;;;;;5055634;28;20025;-72
2021/11/05 05:00:23;;;;;;;12.90;7.63;;;10.30;80.30;;;;;;5055397;28;20039;-72
2021/11/05 05:02:49;;;;;;;13.50;6.80;;;10.20;80.20;;;;;;5055653;28;20029;-72
2021/11/05 05:05:15;;;;;;;14.00;7.30;;;10.20;80.60;;;;;;5055386;28;20402;-72
2021/11/05 05:07:42;;;;;;;13.63;7.43;;;10.30;80.80;;;;;;5055684;28;20033;-72
2021/11/05 05:10:08;;;;;;;15.15;7.10;;;10.20;80.90;;;;;;5055603;28;20481;-72
2021/11/05 05:12:34;;;;;;;11.68;7.00;;;10.20;80.70;;;;;;5055653;28;20066;-72
2021/11/05 05:15:00;;;;;;;12.02;6.47;;;10.20;80.60;;;;;;5055722;28;20029;-72
2021/11/05 05:17:26;;;;;;;13.20;7.05;;;10.20;80.50;;;;;;5055168;28;20382;-72
2021/11/05 05:19:52;;;;;;;16.90;7.38;;;10.30;80.50;;;;;;5055169;28;20040;-72
2021/11/05 05:22:17;;;;;;;16.48;6.35;;;10.20;80.40;;;;;;5055369;28;20033;-72
2021/11/05 05:24:43;;;;;;;10.97;5.07;;;10.30;80.80;;;;;;5055583;28;20056;-72
2021/11/05 05:27:09;;;;;;;10.82;5.80;;;10.20;80.80;;;;;;5054893;28;20032;-72
2021/11/05 05:29:35;;;;;;;11.65;4.80;;;10.20;81.20;;;;;;5055001;28;20040;-72
2021/11/05 05:32:01;;;;;;;11.63;4.00;;;10.20;81.20;;;;;;5055120;28;20032;-72
2021/11/05 05:34:27;;;;;;;11.32;4.25;;;10.20;81.10;;;;;;5037326;28;20028;-72
2021/11/05 05:36:53;;;;;;;10.93;3.88;;;10.20;81.10;;;;;;5055159;28;20029;-72
2021/11/05 05:39:19;;;;;;;16.98;4.97;;;10.20;81.30;;;;;;5054793;28;20056;-72
2021/11/05 05:41:44;;;;;;;23.05;5.65;;;10.20;81.10;;;;;;5054956;28;20470;-72
2021/11/05 05:44:10;;;;;;;22.33;6.90;;;10.20;81.00;;;;;;5054952;28;20029;-72
2021/11/05 05:46:36;;;;;;;24.08;6.47;;;10.20;80.90;;;;;;5054840;28;20035;-72
2021/11/05 05:49:02;;;;;;;16.08;4.85;;;10.20;80.90;;;;;;5054631;28;20124;-72
2021/11/05 05:51:32;;;;;;;18.33;7.00;;;10.20;80.80;;;;;;5036889;28;20025;-72
2021/11/05 05:53:58;;;;;;;26.50;7.73;;;10.20;80.90;;;;;;5054871;28;20036;-72
2021/11/05 05:56:24;;;;;;;24.03;6.50;;;10.20;81.20;;;;;;5054818;28;20056;-72
2021/11/05 05:58:49;;;;;;;15.13;4.72;;;10.20;81.50;;;;;;5054747;28;20119;-71
2021/11/05 06:01:15;;;;;;;11.57;3.83;;;10.20;81.50;;;;;;5054673;28;20029;-72
2021/11/05 06:03:41;;;;;;;11.63;3.80;;;10.20;81.60;;;;;;5054262;28;20474;-72
2021/11/05 06:06:06;;;;;;;11.55;3.30;;;10.20;81.70;;;;;;5054864;28;20033;-72
2021/11/05 06:08:32;;;;;;;15.43;4.10;;;10.20;81.70;;;;;;5036305;28;20033;-72
2021/11/05 06:10:58;;;;;;;12.70;3.57;;;10.20;82.00;;;;;;5053611;28;20025;-72
2021/11/05 06:13:24;;;;;;;9.57;3.37;;;10.20;82.00;;;;;;5054351;28;20147;-72
2021/11/05 06:15:51;;;;;;;13.35;3.88;;;10.20;82.30;;;;;;5054341;28;20028;-72
2021/11/05 06:18:17;;;;;;;9.27;3.10;;;10.20;82.60;;;;;;5053928;28;20025;-72
2021/11/05 06:20:43;;;;;;;15.95;4.35;;;10.20;82.60;;;;;;5054453;28;20088;-72
2021/11/05 06:23:08;;;;;;;9.38;2.97;;;10.30;82.00;;;;;;5054146;28;20025;-72
2021/11/05 06:25:35;;;;;;;10.07;3.80;;;10.30;82.40;;;;;;5052807;28;20029;-72
2021/11/05 06:28:00;;;;;;;9.68;3.55;;;10.20;82.60;;;;;;5052446;28;20461;-72
2021/11/05 06:30:26;;;;;;;8.30;3.17;;;10.20;82.90;;;;;;5035753;28;20025;-72
2021/11/05 06:32:52;;;;;;;8.57;3.55;;;10.30;83.60;;;;;;5053191;28;20106;-72
2021/11/05 06:35:18;;;;;;;8.30;3.92;;;10.30;84.20;;;;;;5052990;28;20036;-72
2021/11/05 06:37:44;;;;;;;10.30;3.72;;;10.40;84.10;;;;;;5053524;28;20083;-72
2021/11/05 06:40:11;;;;;;;13.38;4.05;;;10.40;84.20;;;;;;5053391;28;20025;-72
2021/11/05 06:42:41;;;;;;;9.73;3.77;;;10.40;84.20;;;;;;5053012;28;20021;-71
2021/11/05 06:45:10;;;;;;;13.30;3.97;;;10.40;85.00;;;;;;5053452;28;20070;-73
2021/11/05 06:47:37;;;;;;;8.73;3.53;;;10.40;85.50;;;;;;5053434;28;20021;-73
2021/11/05 06:50:04;;;;;;;12.73;3.88;;;10.40;85.90;;;;;;5053589;28;20025;-72
2021/11/05 06:52:30;;;;;;;11.02;3.95;;;10.50;86.60;;;;;;5053185;28;20021;-72
2021/11/05 06:54:56;;;;;;;16.15;4.63;;;10.60;87.20;;;;;;5053600;28;20090;-75
2021/11/05 06:57:21;;;;;;;12.10;4.03;;;10.60;88.80;;;;;;5053015;28;20033;-74
2021/11/05 06:59:47;;;;;;;15.65;4.13;;;;;;;;;;5053075;28;20028;-74
2021/11/05 07:02:13;;;;;;;17.38;4.35;;;10.70;81.90;;;;;;5052572;28;20029;-74
2021/11/05 07:04:39;;;;;;;12.95;4.47;;;10.70;82.20;;;;;;5052358;28;20114;-74
2021/11/05 07:07:05;;;;;;;13.50;4.47;;;;;;;;;;5052543;28;20025;-74
2021/11/05 07:09:31;;;;;;;10.45;4.07;;;;;;;;;;5052749;28;20041;-74
2021/11/05 07:11:57;;;;;;;10.65;3.95;;;;;;;;;;5051917;28;20021;-74
2021/11/05 07:14:23;;;;;;;18.98;5.13;;;11.00;81.80;;;;;;5052939;28;20036;-74
2021/11/05 07:16:48;;;;;;;17.83;4.63;;;11.10;82.10;;;;;;5051486;28;20028;-73
2021/11/05 07:19:14;;;;;;;12.57;4.22;;;11.10;82.00;;;;;;5052694;28;20056;-74
2021/11/05 07:21:40;;;;;;;9.07;3.95;;;11.20;82.50;;;;;;5052928;28;20028;-74
2021/11/05 07:24:07;;;;;;;10.68;3.70;;;;;;;;;;5052893;28;20063;-74
2021/11/05 07:26:41;;;;;;;12.65;4.07;;;11.30;81.20;;;;;;5052914;28;20354;-74
2021/11/05 07:29:09;;;;;;;12.30;4.15;;;11.30;82.60;;;;;;5052851;28;20032;-74
2021/11/05 07:31:36;;;;;;;12.30;4.07;;;;;;;;;;5053030;28;20107;-74
2021/11/05 07:34:01;;;;;;;9.77;4.20;;;11.30;81.40;;;;;;5052913;28;20104;-74
2021/11/05 07:36:27;;;;;;;10.48;4.20;;;11.30;81.80;;;;;;5053004;28;20124;-74
2021/11/05 07:38:53;;;;;;;11.00;4.65;;;11.30;81.90;;;;;;5052764;28;20029;-75
2021/11/05 07:41:20;;;;;;;15.45;4.50;;;;;;;;;;5052669;28;20393;-74
2021/11/05 07:43:49;;;;;;;10.95;5.05;;;11.30;82.10;;;;;;5052993;28;20028;-74
2021/11/05 07:46:15;;;;;;;12.75;5.03;;;;;;;;;;5052974;28;20029;-74
2021/11/05 07:48:41;;;;;;;12.88;4.88;;;11.40;82.10;;;;;;5052620;28;20041;-73
2021/11/05 07:51:07;;;;;;;14.20;4.93;;;;;;;;;;5052505;28;20394;-73
2021/11/05 07:53:33;;;;;;;12.77;4.40;;;11.50;82.80;;;;;;5052582;28;20491;-74
2021/11/05 07:55:59;;;;;;;9.30;4.00;;;;;;;;;;5052690;28;20114;-73
2021/11/05 07:58:25;;;;;;;19.75;4.40;;;;;;;;;;5034818;28;20021;-73
2021/11/05 08:00:51;;;;;;;11.13;3.85;;;11.60;82.60;;;;;;5052790;28;20028;-73
2021/11/05 08:03:17;;;;;;;12.93;3.13;;;11.70;81.90;;;;;;5034607;28;20029;-72
2021/11/05 08:05:43;;;;;;;9.43;3.00;;;11.90;80.60;;;;;;5034445;28;20045;-73
2021/11/05 08:08:10;;;;;;;11.82;2.30;;;12.00;79.60;;;;;;5052502;28;20082;-73
2021/11/05 08:10:36;;;;;;;6.93;2.30;;;12.20;78.50;;;;;;5052964;28;20033;-73
2021/11/05 08:13:02;;;;;;;9.88;2.15;;;12.30;77.60;;;;;;5034591;28;20112;-74
2021/11/05 08:15:28;;;;;;;15.13;2.22;;;12.40;77.10;;;;;;5052438;28;20090;-74
2021/11/05 08:17:54;;;;;;;8.07;1.98;;;12.60;76.60;;;;;;5052387;28;20029;-74
2021/11/05 08:20:19;;;;;;;10.40;2.10;;;12.70;76.20;;;;;;5052341;28;20088;-74
2021/11/05 08:22:46;;;;;;;10.07;2.03;;;12.80;75.70;;;;;;5052469;28;20032;-74
2021/11/05 08:25:14;;;;;;;8.68;1.70;;;12.80;75.10;;;;;;5052591;28;20377;-74
2021/11/05 08:27:41;;;;;;;7.57;2.00;;;13.00;74.60;;;;;;5052265;28;20104;-74
2021/11/05 08:30:12;;;;;;;6.65;2.33;;;13.10;74.30;;;;;;5052571;28;20029;-74
2021/11/05 08:32:38;;;;;;;6.20;1.83;;;13.10;74.00;;;;;;5052151;28;20025;-74
2021/11/05 08:35:06;;;;;;;7.53;1.80;;;13.20;73.60;;;;;;5055808;28;20021;-74
2021/11/05 08:37:32;;;;;;;4.40;1.63;;;13.30;73.50;;;;;;5055797;28;20028;-74
2021/11/05 08:39:57;;;;;;;7.03;2.00;;;13.40;73.80;;;;;;5056117;28;20021;-73
2021/11/05 08:42:24;;;;;;;7.40;1.75;;;13.40;73.00;;;;;;5055913;28;20021;-74
2021/11/05 08:44:50;;;;;;;9.13;2.25;;;13.50;72.60;;;;;;5055939;28;20359;-73
2021/11/05 08:47:16;;;;;;;5.43;1.98;;;13.60;72.30;;;;;;5055965;28;20064;-74
2021/11/05 08:49:42;;;;;;;9.45;2.08;;;;;;;;;;5055471;28;20068;-74
2021/11/05 08:52:07;;;;;;;6.63;1.50;;;13.70;71.20;;;;;;5055596;28;20503;-72
2021/11/05 08:54:34;;;;;;;7.53;1.75;;;;;;;;;;5055767;28;20108;-73
2021/11/05 08:56:59;;;;;;;6.43;1.70;;;13.90;70.70;;;;;;5055702;28;20025;-74
2021/11/05 08:59:26;;;;;;;5.43;1.60;;;14.00;71.60;;;;;;5055608;28;20029;-74
2021/11/05 09:01:51;;;;;;;6.53;1.75;;;14.10;70.50;;;;;;5055584;28;20100;-74
2021/11/05 09:04:18;;;;;;;5.43;1.58;;;14.10;68.90;;;;;;5055520;28;20133;-73
2021/11/05 09:06:45;;;;;;;4.75;1.50;;;14.20;68.00;;;;;;5037856;28;20028;-73
2021/11/05 09:09:11;;;;;;;8.15;1.50;;;14.20;67.20;;;;;;5052633;28;20401;-72
2021/11/05 09:11:37;;;;;;;7.10;1.60;;;14.30;67.50;;;;;;5053058;28;20032;-71
2021/11/05 09:14:03;;;;;;;5.22;1.33;;;14.30;68.00;;;;;;5053050;28;20029;-71
2021/11/05 09:16:29;;;;;;;6.05;1.65;;;14.40;67.30;;;;;;5055228;28;20032;-71
2021/11/05 09:18:56;;;;;;;5.90;1.42;;;14.50;66.50;;;;;;5053681;28;20452;-74
2021/11/05 09:21:22;;;;;;;6.07;1.42;;;14.50;66.00;;;;;;5052659;28;20031;-73
2021/11/05 09:23:48;;;;;;;5.32;1.30;;;14.60;65.60;;;;;;5053582;28;20474;-75
2021/11/05 09:26:15;;;;;;;8.13;1.52;;;14.60;65.00;;;;;;5055271;28;20097;-75
2021/11/05 09:28:41;;;;;;;7.57;2.17;;;14.60;64.80;;;;;;5054966;28;20040;-73
2021/11/05 09:31:06;;;;;;;9.82;1.70;;;14.70;64.50;;;;;;5054996;28;20108;-73
2021/11/05 09:33:32;;;;;;;5.40;1.58;;;14.60;64.40;;;;;;5054924;28;20025;-74
2021/11/05 09:35:58;;;;;;;4.22;1.42;;;14.70;65.00;;;;;;5054744;28;20017;-74
2021/11/05 09:38:24;;;;;;;11.18;3.15;;;14.70;64.50;;;;;;5053078;28;20032;-73
2021/11/05 09:40:51;;;;;;;7.80;1.88;;;14.70;63.80;;;;;;5054134;28;20100;-74
2021/11/05 09:43:18;;;;;;;14.52;4.10;;;14.70;63.60;;;;;;5054922;28;20037;-74
2021/11/05 09:45:44;;;;;;;6.97;2.03;;;14.80;63.30;;;;;;5054057;28;20025;-74
2021/11/05 09:48:09;;;;;;;6.40;1.60;;;14.70;63.40;;;;;;5054478;28;20392;-73
2021/11/05 09:50:37;;;;;;;4.60;1.33;;;14.80;64.00;;;;;;5054089;28;20449;-73
2021/11/05 09:53:04;;;;;;;7.30;2.00;;;14.80;63.50;;;;;;5036973;28;20040;-73
2021/11/05 09:55:32;;;;;;;9.75;1.67;;;14.80;62.90;;;;;;5053837;28;20078;-73
2021/11/05 09:57:58;;;;;;;9.30;2.90;;;14.80;62.80;;;;;;5054636;28;20562;-73
2021/11/05 10:00:26;;;;;;;10.70;2.90;;;14.80;62.90;;;;;;5054445;28;20380;-73
2021/11/05 10:02:52;;;;;;;11.10;2.15;;;14.80;62.90;;;;;;5054398;28;20028;-73
2021/11/05 10:05:18;;;;;;;5.15;1.60;;;14.90;63.00;;;;;;5054416;28;20412;-73
2021/11/05 10:07:53;;;;;;;4.72;1.58;;;14.90;61.70;;;;;;5054030;28;20029;-73
2021/11/05 10:10:28;;;;;;;8.40;2.08;;;14.90;61.70;;;;;;5054644;28;20029;-73
2021/11/05 10:13:06;;;;;;;5.20;1.55;;;14.90;62.00;;;;;;5053713;28;20025;-73
2021/11/05 10:15:52;;;;;;;8.88;1.70;;;14.90;61.60;;;;;;5053484;28;20025;-73
2021/11/05 10:18:54;;;;;;;4.65;1.70;;;14.90;61.30;;;;;;5054057;28;20021;-73
2021/11/05 10:21:20;;;;;;;6.18;2.00;;;14.90;61.30;;;;;;5029238;28;20052;-73
2021/11/05 10:23:46;;;;;;;5.90;1.60;;;14.90;60.90;;;;;;5053910;28;20025;-73
2021/11/05 10:26:26;;;;;;;3.85;1.10;;;14.90;61.20;;;;;;5035984;28;20159;-73
2021/11/05 10:28:51;;;;;;;4.38;1.30;;;14.90;61.50;;;;;;5053642;28;20047;-73
2021/11/05 10:31:18;;;;;;;5.20;1.33;;;14.90;60.30;;;;;;5053886;28;20108;-73
2021/11/05 10:33:46;;;;;;;2.75;1.17;;;14.90;59.80;;;;;;5054205;28;20107;-73
2021/11/05 10:36:14;;;;;;;3.40;1.25;;;14.90;60.30;;;;;;5053908;28;20288;-73
2021/11/05 10:38:54;;;;;;;4.90;1.30;;;14.90;60.60;;;;;;5053815;28;20428;-73
2021/11/05 10:41:24;;;;;;;3.42;1.20;;;14.90;59.90;;;;;;5052979;28;20418;-74
2021/11/05 10:43:52;;;;;;;4.57;1.42;;;14.90;59.80;;;;;;5053373;28;20443;-73
2021/11/05 10:46:33;;;;;;;4.55;1.42;;;14.90;60.30;;;;;;5052701;28;20103;-73
2021/11/05 10:49:19;;;;;;;3.58;1.40;;;15.00;60.10;;;;;;5053639;28;20477;-74
2021/11/05 10:51:45;;;;;;;4.35;1.23;;;15.00;60.10;;;;;;5053281;28;20020;-73
2021/11/05 10:54:11;;;;;;;3.50;1.08;;;15.10;59.80;;;;;;5053224;28;20025;-73
2021/11/05 10:56:38;;;;;;;3.85;1.00;;;15.20;59.70;;;;;;5053229;28;20028;-73
2021/11/05 10:59:10;;;;;;;3.45;1.20;;;15.20;60.20;;;;;;5053250;28;20020;-72
2021/11/05 11:01:37;;;;;;;4.15;1.30;;;15.30;59.20;;;;;;5053112;28;20063;-74
2021/11/05 11:04:06;;;;;;;3.67;1.40;;;15.40;59.40;;;;;;5052531;28;20041;-71
2021/11/05 11:06:42;;;;;;;3.00;1.17;;;15.50;59.30;;;;;;5052592;28;20037;-72
2021/11/05 11:09:17;;;;;;;2.80;1.20;;;15.50;59.00;;;;;;5052889;28;20112;-74
2021/11/05 11:11:58;;;;;;;5.85;0.90;;;15.60;58.60;;;;;;5052365;28;20049;-74
2021/11/05 11:14:30;;;;;;;2.47;1.13;;;15.70;58.70;;;;;;5052693;28;20420;-74
2021/11/05 11:16:56;;;;;;;2.75;0.90;;;15.70;56.60;;;;;;5052791;28;20027;-75
2021/11/05 11:19:24;;;;;;;2.92;1.17;;;15.70;57.80;;;;;;5065242;28;20108;-74
2021/11/05 11:22:02;;;;;;;2.85;1.15;;;15.80;58.00;;;;;;5053486;28;20029;-74
2021/11/05 11:24:31;;;;;;;2.72;1.17;;;15.80;57.90;;;;;;5052700;28;20373;-74
2021/11/05 11:26:58;;;;;;;4.07;1.05;;;15.90;57.60;;;;;;5052672;28;20031;-73
2021/11/05 11:29:25;;;;;;;4.00;1.30;;;15.90;57.30;;;;;;5052536;28;20040;-73
2021/11/05 11:31:54;;;;;;;8.30;1.92;;;16.10;60.10;;;;;;5052660;28;20066;-73
2021/11/05 11:34:20;;;;;;;3.33;1.35;;;16.10;57.40;;;;;;5052258;28;20025;-74
2021/11/05 11:36:59;;;;;;;1.83;1.10;;;16.00;56.80;;;;;;5052324;28;20032;-73
2021/11/05 11:39:28;;;;;;;4.57;1.00;;;16.10;57.60;;;;;;5068798;28;20032;-72
2021/11/05 11:41:56;;;;;;;2.70;0.90;;;16.20;66.90;;;;;;5053991;28;20025;-73
2021/11/05 11:44:25;;;;;;;2.75;0.90;;;16.20;68.90;;;;;;5072145;28;20033;-73
2021/11/05 11:46:58;;;;;;;2.88;1.17;;;16.30;74.50;;;;;;5072504;28;20017;-73
2021/11/05 11:49:39;;;;;;;;;;;16.30;62.10;;;;;;5072648;28;20119;-73
2021/11/05 11:52:30;;;;;;;3.22;1.10;;;16.20;56.10;;;;;;5070547;28;19905;-73
2021/11/05 11:55:09;;;;;;;3.33;1.10;;;16.20;56.40;;;;;;5072033;28;20078;-73
2021/11/05 11:57:35;;;;;;;2.95;1.08;;;16.20;55.60;;;;;;5062124;28;20116;-74
2021/11/05 12:00:13;;;;;;;4.93;1.27;;;16.30;59.40;;;;;;5049834;28;20137;-73
2021/11/05 12:02:44;;;;;;;3.67;1.20;;;16.30;57.20;;;;;;5048221;28;20036;-73
2021/11/05 12:05:23;;;;;;;6.07;1.10;;;16.30;56.00;;;;;;5051988;28;20045;-73
2021/11/05 12:08:13;;;;;;;5.55;1.30;;;16.30;56.30;;;;;;5051933;28;20500;-74
2021/11/05 12:10:40;;;;;;;5.18;1.10;;;16.40;56.90;;;;;;5053870;28;20033;-73
2021/11/05 12:13:33;;;;;;;3.63;0.93;;;16.50;55.40;;;;;;5054890;28;20056;-73
2021/11/05 12:16:24;;;;;;;2.97;1.02;;;16.50;55.00;;;;;;5056204;28;20029;-73
2021/11/05 12:18:57;;;;;;;3.67;1.10;;;16.60;55.10;;;;;;5053900;28;20040;-73
2021/11/05 12:21:29;;;;;;;6.47;0.90;;;16.60;55.00;;;;;;5055303;28;20082;-73
2021/11/05 12:24:24;;;;;;;3.42;1.17;;;16.60;54.40;;;;;;5053795;28;20032;-72
2021/11/05 12:26:58;;;;;;;2.25;1.10;;;16.70;54.80;;;;;;5052404;28;20104;-72
2021/11/05 12:29:33;;;;;;;4.00;1.17;;;16.70;53.90;;;;;;5053729;28;20109;-73
2021/11/05 12:32:17;;;;;;;2.65;1.13;;;16.60;54.50;;;;;;5053074;28;20025;-73
2021/11/05 12:34:50;;;;;;;7.07;1.20;;;16.60;54.10;;;;;;5054587;28;20071;-72
2021/11/05 12:37:33;;;;;;;4.07;1.20;;;16.60;54.40;;;;;;5055603;28;20079;-73
2021/11/05 12:40:17;;;;;;;;;;;16.60;54.00;;;;;;5055567;28;20021;-73
2021/11/05 12:42:42;;;;;;;5.93;1.15;;;16.60;54.40;;;;;;5054543;28;19904;-73
2021/11/05 12:45:08;;;;;;;3.53;1.13;;;16.60;54.60;;;;;;5054583;28;20079;-72
2021/11/05 12:48:00;;;;;;;2.03;0.95;;;16.60;54.00;;;;;;5054273;28;20025;-72
2021/11/05 12:50:31;;;;;;;3.67;0.95;;;16.60;54.30;;;;;;5054556;28;20025;-72